Flight Track Log - Related Links

Times and Time Zones

All times are in EDT time to prevent confusion due to time zone crossing. See the N775NC flight status page for this flight to view local times or setup timezone preferences in your user account.

Time Position Orientation Groundspeed Altitude Reporting Facility
EDT Latitude Longitude Course Direction KTS MPH feet Rate Location/Type
Sun 03:54:57 PM 36.3800 -82.4836 219° Southwest 228 262 5,200  Level Atlanta Center
Sun 03:55:57 PM 36.3156 -82.5031 194° South 233 268 7,700 2,300 Climbing Atlanta Center
Sun 03:56:00 PM 36.1961 -82.6540 219° Southwest  Level FlightAware Approximate
Sun 03:56:57 PM 36.2492 -82.5353 201° Southwest 252 290 9,800  Level Atlanta Center
Sun 03:57:00 PM 36.1300 -82.7200 219° Southwest  Level FlightAware Approximate
Sun 03:57:57 PM 36.1833 -82.6008 219° Southwest 289 333 11,200  Level Atlanta Center
Sun 03:58:00 PM 36.0639 -82.7861 219° Southwest  Level FlightAware Approximate
Sun 03:58:57 PM 36.1069 -82.6742 218° Southwest 341 392 13,100  Level Atlanta Center
Sun 03:59:00 PM 35.9925 -82.8409 219° Southwest  Level FlightAware Approximate
Sun 03:59:57 PM 36.0286 -82.7575 221° Southwest 374 430 15,400  Level Atlanta Center
Sun 04:00:00 PM 35.9266 -82.9070 219° Southwest  Level FlightAware Approximate
Sun 04:00:57 PM 35.9419 -82.8486 220° Southwest 379 436 17,600  Level Atlanta Center
Sun 04:01:57 PM 35.8553 -82.9397 220° Southwest 391 450 18,900 700 Climbing Atlanta Center
Sun 04:02:57 PM 35.7811 -83.0583 232° Southwest 420 483 19,000 50 Climbing Atlanta Center
Sun 04:03:57 PM 35.6711 -83.1211 205° Southwest 434 499 19,000  Level Atlanta Center
Sun 04:04:57 PM 35.5458 -83.1378 186° South 427 491 19,000  Level Atlanta Center
Sun 04:05:57 PM 35.4292 -83.1594 189° South 434 499 19,000  Level Atlanta Center
Sun 04:06:57 PM 35.3106 -83.1758 186° South 434 499 19,000  Level Atlanta Center
Sun 04:07:57 PM 35.2022 -83.1950 188° South 416 479 19,000  Level Atlanta Center
Sun 04:08:57 PM 35.1103 -83.2086 187° South 392 451 19,000  Level Atlanta Center
Sun 04:09:57 PM 35.0061 -83.2272 188° South 386 444 19,000  Level Atlanta Center
Sun 04:10:57 PM 34.9000 -83.2561 193° South 386 444 19,000 -50 Level Atlanta Center
Sun 04:11:57 PM 34.7978 -83.2800 191° South 391 450 18,900 -450 Descending Atlanta Center
Sun 04:12:57 PM 34.6936 -83.3011 189° South 391 450 18,100 -450 Descending Atlanta Center
Sun 04:13:57 PM 34.5981 -83.3700 211° Southwest 365 420 18,000 -200 Descending Atlanta Center
Sun 04:14:57 PM 34.5211 -83.4539 222° Southwest 370 426 17,700 -800 Descending Atlanta Center
Sun 04:15:57 PM 34.4486 -83.5250 219° Southwest 370 426 16,400 -1,200 Descending Atlanta Center
Sun 04:16:57 PM 34.3653 -83.5883 212° Southwest 375 432 15,300 -1,050 Descending Atlanta Center
Sun 04:17:57 PM 34.2861 -83.6567 216° Southwest 365 420 14,300 -650 Descending Atlanta Center
Sun 04:18:57 PM 34.2050 -83.7347 219° Southwest 365 420 14,000 -150 Descending Atlanta Center
Sun 04:19:57 PM 34.1281 -83.8231 224° Southwest 387 445 14,000 -211 Level Atlanta Center
Sun 04:20:51 PM 34.0500 -83.9167 225° Southwest 380 437 13,600 -842 Descending Atlanta TRACON
Sun 04:21:51 PM 33.9667 -84.0000 220° Southwest 380 437 12,400 -800 Descending Atlanta TRACON
Sun 04:22:51 PM 33.8833 -84.0833 220° Southwest 379 436 12,000 -200 Descending Atlanta TRACON
Sun 04:23:51 PM 33.8167 -84.1667 226° Southwest 337 388 12,000  Level Atlanta TRACON
Sun 04:24:51 PM 33.7667 -84.2333 228° Southwest 267 307 12,000 -200 Level Atlanta TRACON
Sun 04:25:51 PM 33.7333 -84.3000 239° Southwest 268 308 11,600 -942 Descending Atlanta TRACON
Sun 04:26:52 PM 33.7167 -84.4000 259° West 272 313 10,100 -1,587 Descending Atlanta TRACON
Sun 04:27:52 PM 33.7333 -84.4833 284° West 261 300 8,400 -1,950 Descending Atlanta TRACON
Sun 04:28:52 PM 33.7333 -84.5667 270° West 248 285 6,200 -1,952 Descending Atlanta TRACON
Sun 04:29:58 PM 33.7333 -84.6500 270° West 227 261 4,300 -1,100 Descending Atlanta TRACON
Sun 04:30:52 PM 33.7000 -84.6833 220° Southwest 208 239 4,000 -150 Descending Atlanta TRACON
Sun 04:31:58 PM 33.6500 -84.6500 151° Southeast 191 220 4,000 -333 Level Atlanta TRACON
Sun 04:32:58 PM 33.6500 -84.5833 90° East 182 209 3,300 -789 Descending Atlanta TRACON
Sun 04:33:52 PM 33.6500 -84.5333 90° East 182 209 2,500 -789 Descending Atlanta TRACON
Sun 04:34:52 PM 33.6500 -84.4833 90° East 137 158 1,800 -700 Descending Atlanta TRACON

Login

Don't have an account? Register now (free) for customized features, flight alerts, and more!